createdAt,value
2018-04-14T00:00:45.356Z,39.20
2018-04-14T00:03:12.984Z,40.10
2018-04-14T00:05:40.639Z,41.63
2018-04-14T00:08:08.677Z,38.00
2018-04-14T00:10:37.068Z,39.13
2018-04-14T00:13:04.731Z,39.23
2018-04-14T00:15:32.399Z,42.20
2018-04-14T00:18:00.015Z,40.10
2018-04-14T00:20:27.635Z,39.43
2018-04-14T00:22:55.287Z,41.53
2018-04-14T00:25:22.896Z,38.90
2018-04-14T00:27:51.320Z,40.50
2018-04-14T00:30:18.975Z,41.97
2018-04-14T00:32:46.776Z,41.13
2018-04-14T00:35:14.426Z,38.63
2018-04-14T00:37:42.043Z,42.50
2018-04-14T00:40:09.708Z,39.23
2018-04-14T00:42:37.323Z,43.25
2018-04-14T00:45:04.998Z,41.30
2018-04-14T00:47:32.617Z,41.20
2018-04-14T00:50:00.232Z,43.90
2018-04-14T00:52:28.659Z,41.15
2018-04-14T00:54:56.316Z,45.50
2018-04-14T00:57:24.985Z,39.83
2018-04-14T00:59:52.644Z,41.03
2018-04-14T01:02:20.351Z,41.80
2018-04-14T01:04:47.963Z,43.00
2018-04-14T01:07:16.305Z,42.50
2018-04-14T01:09:43.964Z,42.70
2018-04-14T01:12:11.630Z,43.53
2018-04-14T01:14:40.064Z,44.63
2018-04-14T01:17:08.123Z,45.90
2018-04-14T01:19:35.747Z,42.97
2018-04-14T01:22:03.403Z,43.80
2018-04-14T01:24:31.036Z,48.10
2018-04-14T01:26:58.921Z,43.33
2018-04-14T01:29:26.577Z,42.33
2018-04-14T01:31:55.028Z,40.70
2018-04-14T01:34:22.689Z,41.60
2018-04-14T01:36:50.310Z,43.50
2018-04-14T01:39:18.216Z,43.30
2018-04-14T01:41:45.887Z,44.03
2018-04-14T01:44:13.541Z,45.85
2018-04-14T01:46:41.922Z,43.80
2018-04-14T01:49:10.347Z,45.07
2018-04-14T01:51:37.965Z,47.92
2018-04-14T01:54:05.615Z,47.00
2018-04-14T01:56:33.273Z,47.60
2018-04-14T01:59:00.914Z,48.87
2018-04-14T02:01:28.583Z,49.28
2018-04-14T02:03:56.191Z,53.10
2018-04-14T02:06:25.651Z,51.92
2018-04-14T02:08:53.270Z,54.07
2018-04-14T02:11:20.896Z,53.60
2018-04-14T02:13:48.548Z,53.37
2018-04-14T02:16:16.204Z,53.07
2018-04-14T02:18:43.827Z,54.57
2018-04-14T02:21:11.500Z,54.17
2018-04-14T02:23:39.115Z,55.60
2018-04-14T02:26:07.223Z,54.67
2018-04-14T02:28:35.079Z,56.07
2018-04-14T02:31:02.704Z,55.87
2018-04-14T02:33:30.332Z,61.47
2018-04-14T02:35:57.982Z,56.37
2018-04-14T02:38:25.632Z,56.05
2018-04-14T02:40:53.605Z,55.03
2018-04-14T02:43:21.232Z,55.70
2018-04-14T02:45:48.891Z,54.92
2018-04-14T02:48:16.511Z,60.17
2018-04-14T02:50:44.163Z,57.47
2018-04-14T02:53:11.780Z,58.50
2018-04-14T02:55:39.812Z,60.28
2018-04-14T02:58:09.256Z,61.22
2018-04-14T03:00:36.920Z,54.20
2018-04-14T03:03:04.608Z,56.77
2018-04-14T03:05:32.228Z,57.07
2018-04-14T03:08:00.151Z,55.30
2018-04-14T03:10:27.774Z,58.27
2018-04-14T03:12:55.423Z,53.20
2018-04-14T03:15:23.035Z,53.77
2018-04-14T03:17:50.696Z,51.20
2018-04-14T03:20:18.336Z,57.67
2018-04-14T03:22:45.948Z,54.47
2018-04-14T03:25:13.607Z,51.50
2018-04-14T03:27:41.227Z,52.45
2018-04-14T03:30:08.888Z,53.33
2018-04-14T03:32:37.317Z,49.55
2018-04-14T03:35:04.975Z,45.17
2018-04-14T03:37:32.588Z,49.03
2018-04-14T03:40:00.251Z,46.47
2018-04-14T03:42:27.878Z,42.10
2018-04-14T03:44:55.499Z,44.88
2018-04-14T03:47:23.147Z,42.67
2018-04-14T03:49:51.575Z,36.70
2018-04-14T03:52:19.348Z,38.87
2018-04-14T03:54:46.992Z,38.07
2018-04-14T03:57:15.229Z,39.63
2018-04-14T03:59:43.107Z,39.47
2018-04-14T04:02:11.908Z,40.80
2018-04-14T04:04:39.563Z,39.53
2018-04-14T04:07:07.181Z,41.47
2018-04-14T04:09:35.645Z,36.28
2018-04-14T04:12:03.281Z,31.97
2018-04-14T04:14:30.931Z,30.70
2018-04-14T04:16:58.600Z,28.97
2018-04-14T04:19:38.196Z,30.90
2018-04-14T04:22:18.365Z,26.13
2018-04-14T04:24:57.632Z,27.80
2018-04-14T04:27:25.285Z,24.97
2018-04-14T04:29:52.895Z,24.37
2018-04-14T04:32:21.312Z,21.77
2018-04-14T04:34:48.972Z,22.60
2018-04-14T04:37:16.599Z,20.97
2018-04-14T04:39:44.256Z,22.03
2018-04-14T04:42:12.656Z,20.07
2018-04-14T04:44:40.306Z,19.93
2018-04-14T04:47:08.141Z,18.57
2018-04-14T04:49:35.795Z,16.30
2018-04-14T04:52:03.423Z,18.80
2018-04-14T04:54:31.076Z,14.73
2018-04-14T04:56:58.739Z,16.03
2018-04-14T04:59:26.355Z,16.20
2018-04-14T05:01:54.771Z,15.03
2018-04-14T05:04:22.916Z,15.10
2018-04-14T05:06:51.155Z,14.30
2018-04-14T05:09:19.571Z,15.60
2018-04-14T05:11:48.023Z,14.55
2018-04-14T05:14:16.447Z,12.68
2018-04-14T05:16:44.116Z,11.10
2018-04-14T05:19:11.901Z,10.87
2018-04-14T05:21:39.556Z,9.88
2018-04-14T05:24:07.617Z,10.45
2018-04-14T05:26:35.226Z,11.02
2018-04-14T05:29:02.888Z,10.93
2018-04-14T05:31:31.271Z,10.83
2018-04-14T05:34:00.316Z,9.43
2018-04-14T05:36:27.974Z,10.23
2018-04-14T05:38:55.582Z,8.73
2018-04-14T05:41:23.203Z,9.80
2018-04-14T05:43:50.861Z,7.87
2018-04-14T05:46:18.515Z,8.95
2018-04-14T05:48:46.175Z,8.50
2018-04-14T05:51:13.787Z,9.05
2018-04-14T05:53:42.136Z,8.73
2018-04-14T05:56:09.747Z,8.83
2018-04-14T05:58:37.368Z,10.00
2018-04-14T06:01:05.094Z,10.57
2018-04-14T06:03:33.204Z,10.40
2018-04-14T06:06:01.624Z,9.60
2018-04-14T06:08:29.257Z,9.48
2018-04-14T06:10:56.920Z,10.65
2018-04-14T06:13:24.536Z,9.30
2018-04-14T06:15:52.196Z,10.25
2018-04-14T06:18:19.823Z,9.52
2018-04-14T06:20:47.470Z,8.45
2018-04-14T06:23:15.120Z,7.80
2018-04-14T06:25:42.727Z,9.18
2018-04-14T06:28:13.791Z,9.10
2018-04-14T06:30:41.403Z,9.00
2018-04-14T06:33:09.068Z,8.87
2018-04-14T06:35:36.675Z,7.40
2018-04-14T06:38:04.331Z,9.00
2018-04-14T06:40:31.956Z,7.73
2018-04-14T06:42:59.602Z,8.43
2018-04-14T06:45:27.259Z,8.37
2018-04-14T06:47:54.907Z,7.20
2018-04-14T06:50:22.519Z,4.47
2018-04-14T06:52:50.453Z,6.37
2018-04-14T06:55:18.100Z,5.90
2018-04-14T06:57:45.764Z,6.05
2018-04-14T07:00:13.375Z,6.20
2018-04-14T07:02:41.123Z,6.63
2018-04-14T07:05:08.779Z,6.57
2018-04-14T07:07:36.419Z,7.50
2018-04-14T07:10:04.099Z,6.53
2018-04-14T07:12:31.718Z,6.63
2018-04-14T07:14:59.936Z,6.80
2018-04-14T07:17:27.700Z,7.40
2018-04-14T07:19:55.360Z,7.57
2018-04-14T07:22:23.314Z,7.78
2018-04-14T07:24:51.068Z,7.87
2018-04-14T07:27:18.725Z,5.95
2018-04-14T07:29:46.343Z,8.05
2018-04-14T07:32:14.496Z,6.90
2018-04-14T07:34:42.119Z,6.57
2018-04-14T07:37:09.891Z,6.93
2018-04-14T07:39:38.556Z,6.50
2018-04-14T07:42:06.320Z,6.65
2018-04-14T07:44:34.102Z,8.30
2018-04-14T07:47:02.323Z,7.20
2018-04-14T07:49:30.072Z,6.63
2018-04-14T07:51:58.413Z,8.48
2018-04-14T07:54:26.290Z,6.63
2018-04-14T07:56:53.915Z,6.95
2018-04-14T07:59:21.575Z,6.37
2018-04-14T08:01:49.954Z,7.70
2018-04-14T08:04:17.637Z,6.57
2018-04-14T08:06:45.257Z,6.77
2018-04-14T08:09:13.675Z,6.80
2018-04-14T08:11:41.335Z,6.80
2018-04-14T08:14:10.331Z,6.43
2018-04-14T08:16:37.991Z,5.80
2018-04-14T08:19:06.397Z,8.03
2018-04-14T08:21:35.546Z,8.73
2018-04-14T08:24:03.198Z,7.40
2018-04-14T08:26:31.055Z,8.45
2018-04-14T08:29:06.874Z,8.60
2018-04-14T08:31:41.346Z,7.40
2018-04-14T08:34:09.768Z,7.95
2018-04-14T08:36:37.487Z,7.57
2018-04-14T08:39:05.926Z,8.73
2018-04-14T08:41:33.653Z,7.05
2018-04-14T08:44:01.317Z,10.40
2018-04-14T08:46:28.964Z,7.30
2018-04-14T08:48:57.331Z,7.57
2018-04-14T08:51:26.116Z,8.38
2018-04-14T08:53:53.730Z,6.87
2018-04-14T08:56:22.774Z,6.72
2018-04-14T08:58:50.792Z,7.67
2018-04-14T09:01:18.452Z,8.00
2018-04-14T09:03:49.262Z,7.23
2018-04-14T09:06:16.884Z,8.15
2018-04-14T09:08:44.532Z,6.67
2018-04-14T09:11:12.148Z,6.93
2018-04-14T09:13:39.807Z,7.60
2018-04-14T09:16:07.464Z,7.97
2018-04-14T09:18:35.198Z,7.05
2018-04-14T09:21:02.855Z,8.00
2018-04-14T09:23:30.471Z,7.70
2018-04-14T09:25:58.133Z,6.93
2018-04-14T09:28:26.542Z,6.80
2018-04-14T09:30:54.209Z,8.80
2018-04-14T09:33:22.648Z,7.33
2018-04-14T09:35:51.077Z,8.13
2018-04-14T09:38:18.709Z,7.55
2018-04-14T09:40:46.356Z,7.80
2018-04-14T09:43:13.974Z,7.70
2018-04-14T09:45:41.643Z,8.80
2018-04-14T09:48:09.571Z,9.07
2018-04-14T09:50:37.965Z,8.27
2018-04-14T09:53:05.625Z,8.60
2018-04-14T09:55:34.673Z,7.27
2018-04-14T09:58:02.788Z,9.20
2018-04-14T10:00:30.560Z,8.50
2018-04-14T10:03:00.319Z,8.88
2018-04-14T10:05:27.960Z,9.03
2018-04-14T10:07:55.706Z,9.00
2018-04-14T10:10:24.331Z,9.53
2018-04-14T10:12:52.128Z,9.60
2018-04-14T10:15:19.742Z,9.25
2018-04-14T10:17:47.383Z,10.37
2018-04-14T10:20:15.049Z,9.80
2018-04-14T10:22:43.447Z,10.20
2018-04-14T10:25:11.115Z,10.52
2018-04-14T10:27:38.883Z,10.47
2018-04-14T10:30:06.559Z,10.18
2018-04-14T10:32:34.174Z,9.53
2018-04-14T10:35:05.459Z,10.70
2018-04-14T10:37:36.225Z,10.63
2018-04-14T10:40:08.909Z,9.15
2018-04-14T10:42:36.529Z,10.53
2018-04-14T10:45:04.195Z,8.35
2018-04-14T10:47:32.824Z,8.83
2018-04-14T10:50:00.485Z,8.87
2018-04-14T10:52:28.881Z,8.70
2018-04-14T10:54:56.863Z,9.30
2018-04-14T10:57:24.511Z,7.40
2018-04-14T10:59:52.120Z,8.43
2018-04-14T11:02:19.767Z,7.45
2018-04-14T11:04:47.438Z,7.97
2018-04-14T11:07:15.087Z,7.10
2018-04-14T11:09:43.927Z,6.90
2018-04-14T11:12:11.648Z,6.50
2018-04-14T11:14:39.302Z,6.78
2018-04-14T11:17:07.103Z,6.57
2018-04-14T11:19:35.453Z,7.27
2018-04-14T11:22:03.063Z,8.00
2018-04-14T11:24:32.212Z,6.55
2018-04-14T11:27:02.917Z,8.32
2018-04-14T11:29:31.690Z,7.70
2018-04-14T11:32:02.117Z,7.10
2018-04-14T11:34:30.120Z,8.80
2018-04-14T11:37:01.012Z,7.93
2018-04-14T11:39:28.684Z,9.10
2018-04-14T11:41:57.618Z,7.13
2018-04-14T11:44:25.286Z,7.15
2018-04-14T11:46:52.931Z,7.53
2018-04-14T11:49:20.580Z,7.60
2018-04-14T11:51:48.192Z,7.10
2018-04-14T11:54:16.085Z,7.43
2018-04-14T11:56:44.102Z,3.77
2018-04-14T11:59:11.776Z,7.90
2018-04-14T12:01:39.561Z,8.17
2018-04-14T12:04:07.175Z,7.90
2018-04-14T12:06:34.819Z,6.53
2018-04-14T12:09:02.439Z,7.73
2018-04-14T12:11:30.090Z,7.40
2018-04-14T12:13:57.915Z,8.00
2018-04-14T12:16:25.565Z,9.03
2018-04-14T12:18:53.242Z,7.80
2018-04-14T12:21:20.991Z,8.47
2018-04-14T12:23:48.642Z,8.00
2018-04-14T12:26:16.432Z,9.17
2018-04-14T12:28:44.048Z,6.87
2018-04-14T12:31:11.713Z,7.53
2018-04-14T12:33:39.335Z,7.73
2018-04-14T12:36:06.945Z,7.53
2018-04-14T12:38:34.600Z,6.78
2018-04-14T12:41:02.218Z,7.20
2018-04-14T12:43:29.827Z,7.07
2018-04-14T12:45:57.467Z,6.50
2018-04-14T12:48:25.099Z,6.40
2018-04-14T12:50:53.517Z,6.70
2018-04-14T12:53:21.173Z,6.30
2018-04-14T12:55:48.824Z,7.10
2018-04-14T12:58:16.455Z,6.34
2018-04-14T13:00:44.867Z,7.20
2018-04-14T13:03:12.533Z,6.63
2018-04-14T13:05:40.141Z,6.47
2018-04-14T13:08:08.686Z,6.70
2018-04-14T13:10:36.359Z,5.90
2018-04-14T13:13:04.011Z,6.83
2018-04-14T13:15:33.312Z,7.70
2018-04-14T13:18:00.965Z,7.00
2018-04-14T13:20:28.607Z,9.45
2018-04-14T13:22:56.254Z,8.18
2018-04-14T13:25:23.869Z,7.87
2018-04-14T13:27:51.535Z,8.80
2018-04-14T13:30:19.173Z,9.05
2018-04-14T13:32:47.045Z,7.95
2018-04-14T13:35:14.706Z,9.88
2018-04-14T13:37:43.578Z,8.20
2018-04-14T13:40:13.550Z,8.87
2018-04-14T13:42:41.201Z,9.13
2018-04-14T13:45:09.227Z,6.70
2018-04-14T13:47:37.867Z,9.43
2018-04-14T13:50:05.527Z,10.27
2018-04-14T13:52:33.150Z,8.80
2018-04-14T13:55:00.805Z,10.48
2018-04-14T13:57:28.462Z,10.87
2018-04-14T13:59:57.232Z,10.93
2018-04-14T14:02:24.889Z,11.80
2018-04-14T14:04:52.500Z,11.50
2018-04-14T14:07:20.928Z,9.85
2018-04-14T14:09:48.548Z,12.20
2018-04-14T14:12:16.237Z,12.43
2018-04-14T14:14:43.916Z,13.20
2018-04-14T14:17:11.575Z,13.77
2018-04-14T14:19:39.441Z,11.33
2018-04-14T14:22:07.112Z,13.90
2018-04-14T14:24:34.731Z,13.65
2018-04-14T14:27:02.401Z,13.27
2018-04-14T14:29:30.802Z,14.00
2018-04-14T14:32:00.992Z,14.77
2018-04-14T14:34:28.649Z,14.13
2018-04-14T14:36:56.275Z,14.98
2018-04-14T14:39:23.927Z,15.77
2018-04-14T14:41:51.600Z,15.97
2018-04-14T14:44:19.221Z,15.90
2018-04-14T14:46:46.884Z,15.00
2018-04-14T14:49:15.137Z,16.98
2018-04-14T14:51:42.816Z,15.70
2018-04-14T14:54:11.251Z,16.40
2018-04-14T14:56:38.877Z,14.55
2018-04-14T14:59:06.516Z,16.62
2018-04-14T15:01:34.830Z,13.23
2018-04-14T15:04:02.463Z,17.30
2018-04-14T15:06:30.128Z,15.43
2018-04-14T15:08:58.592Z,14.83
2018-04-14T15:11:27.638Z,14.45
2018-04-14T15:13:56.063Z,16.90
2018-04-14T15:16:23.719Z,17.27
2018-04-14T15:18:51.985Z,17.57
2018-04-14T15:21:20.183Z,18.02
2018-04-14T15:23:47.799Z,20.02
2018-04-14T15:26:16.488Z,19.98
2018-04-14T15:28:44.156Z,19.58
2018-04-14T15:31:11.835Z,20.05
2018-04-14T15:33:39.699Z,20.45
2018-04-14T15:36:07.316Z,19.75
2018-04-14T15:38:34.990Z,21.43
2018-04-14T15:41:12.342Z,20.93
2018-04-14T15:43:40.306Z,21.27
2018-04-14T15:46:08.871Z,22.43
2018-04-14T15:48:36.531Z,22.55
2018-04-14T15:51:04.751Z,21.00
2018-04-14T15:53:32.411Z,21.57
2018-04-14T15:56:00.301Z,20.37
2018-04-14T15:58:27.920Z,22.70
2018-04-14T16:00:55.751Z,22.60
2018-04-14T16:03:23.410Z,22.40
2018-04-14T16:05:51.036Z,23.47
2018-04-14T16:08:18.696Z,25.37
2018-04-14T16:10:46.495Z,22.17
2018-04-14T16:13:14.324Z,21.17
2018-04-14T16:15:41.936Z,21.33
2018-04-14T16:18:11.256Z,18.62
2018-04-14T16:20:38.903Z,21.40
2018-04-14T16:23:07.286Z,23.40
2018-04-14T16:25:34.960Z,24.37
2018-04-14T16:28:04.327Z,25.00
2018-04-14T16:30:32.720Z,25.77
2018-04-14T16:33:01.100Z,25.63
2018-04-14T16:35:29.552Z,25.88
2018-04-14T16:37:57.427Z,24.20
2018-04-14T16:40:25.079Z,27.23
2018-04-14T16:42:52.699Z,27.30
2018-04-14T16:45:21.422Z,26.87
2018-04-14T16:47:49.536Z,28.10
2018-04-14T16:50:18.389Z,27.10
2018-04-14T16:52:46.045Z,25.33
2018-04-14T16:55:13.695Z,29.87
2018-04-14T16:57:41.364Z,27.97
2018-04-14T17:00:09.222Z,28.33
2018-04-14T17:02:36.844Z,30.67
2018-04-14T17:05:04.456Z,31.30
2018-04-14T17:07:32.119Z,30.50
2018-04-14T17:10:01.160Z,32.67
2018-04-14T17:12:28.782Z,32.10
2018-04-14T17:14:56.392Z,32.10
2018-04-14T17:17:24.301Z,34.90
2018-04-14T17:19:52.358Z,33.95
2018-04-14T17:22:20.008Z,33.63
2018-04-14T17:24:52.844Z,33.42
2018-04-14T17:27:26.754Z,33.38
2018-04-14T17:29:55.799Z,37.47
2018-04-14T17:32:23.459Z,35.95
2018-04-14T17:34:51.908Z,31.13
2018-04-14T17:37:19.571Z,33.83
2018-04-14T17:39:47.268Z,32.67
2018-04-14T17:42:15.029Z,35.00
2018-04-14T17:44:42.690Z,35.42
2018-04-14T17:47:10.347Z,35.57
2018-04-14T17:49:38.008Z,27.90
2018-04-14T17:52:05.623Z,35.00
2018-04-14T17:54:33.275Z,36.10
2018-04-14T17:57:00.889Z,35.27
2018-04-14T17:59:28.539Z,34.27
2018-04-14T18:01:56.193Z,50.40
2018-04-14T18:04:23.850Z,34.67
2018-04-14T18:06:51.953Z,34.77
2018-04-14T18:09:19.619Z,35.23
2018-04-14T18:11:47.278Z,35.10
2018-04-14T18:14:14.900Z,35.47
2018-04-14T18:16:42.557Z,39.13
2018-04-14T18:19:10.218Z,36.07
2018-04-14T18:21:37.872Z,34.07
2018-04-14T18:24:05.483Z,34.67
2018-04-14T18:26:33.903Z,38.23
2018-04-14T18:29:01.600Z,36.00
2018-04-14T18:31:29.327Z,38.17
2018-04-14T18:33:57.126Z,39.23
2018-04-14T18:36:24.744Z,35.77
2018-04-14T18:38:52.413Z,37.20
2018-04-14T18:41:20.191Z,39.37
2018-04-14T18:43:47.809Z,39.27
2018-04-14T18:46:15.459Z,38.43
2018-04-14T18:48:43.111Z,39.80
2018-04-14T18:51:11.495Z,40.40
2018-04-14T18:53:39.906Z,39.30
2018-04-14T18:56:07.528Z,39.38
2018-04-14T18:58:35.960Z,39.60
2018-04-14T19:01:03.622Z,37.88
2018-04-14T19:03:31.275Z,39.47
2018-04-14T19:05:58.891Z,40.60
2018-04-14T19:08:27.310Z,41.00
2018-04-14T19:10:55.106Z,41.23
2018-04-14T19:13:22.771Z,41.40
2018-04-14T19:15:50.842Z,45.80
2018-04-14T19:18:19.127Z,41.47
2018-04-14T19:20:46.811Z,41.88
2018-04-14T19:23:15.188Z,44.90
2018-04-14T19:25:43.740Z,41.67
2018-04-14T19:28:13.301Z,41.67
2018-04-14T19:30:41.436Z,43.28
2018-04-14T19:33:09.047Z,39.78
2018-04-14T19:35:36.695Z,43.87
2018-04-14T19:38:04.311Z,42.63
2018-04-14T19:40:31.967Z,43.07
2018-04-14T19:42:59.583Z,42.87
2018-04-14T19:45:27.250Z,42.37
2018-04-14T19:47:54.908Z,41.47
2018-04-14T19:50:22.558Z,40.37
2018-04-14T19:52:50.219Z,41.00
2018-04-14T19:55:17.884Z,42.25
2018-04-14T19:57:45.503Z,41.27
2018-04-14T20:00:13.156Z,42.40
2018-04-14T20:02:41.536Z,43.73
2018-04-14T20:05:09.966Z,40.97
2018-04-14T20:07:37.617Z,41.03
2018-04-14T20:10:05.284Z,39.17
2018-04-14T20:12:32.906Z,45.05
2018-04-14T20:15:01.543Z,39.60
2018-04-14T20:17:29.163Z,43.73
2018-04-14T20:19:56.776Z,45.00
2018-04-14T20:22:25.156Z,43.65
2018-04-14T20:24:52.804Z,43.35
2018-04-14T20:27:20.699Z,44.40
2018-04-14T20:29:49.079Z,41.97
2018-04-14T20:32:17.496Z,42.17
2018-04-14T20:34:45.114Z,42.65
2018-04-14T20:37:12.771Z,43.60
2018-04-14T20:39:40.440Z,43.50
2018-04-14T20:42:08.060Z,44.40
2018-04-14T20:44:35.721Z,44.08
2018-04-14T20:47:03.380Z,44.50
2018-04-14T20:49:30.995Z,43.93
2018-04-14T20:51:58.653Z,43.50
2018-04-14T20:54:26.395Z,45.13
2018-04-14T20:56:55.120Z,46.17
2018-04-14T20:59:22.736Z,44.10
2018-04-14T21:01:50.356Z,45.83
2018-04-14T21:04:18.014Z,48.07
2018-04-14T21:06:45.637Z,46.63
2018-04-14T21:09:13.334Z,44.93
2018-04-14T21:11:40.968Z,46.80
2018-04-14T21:14:08.679Z,48.03
2018-04-14T21:16:36.297Z,45.25
2018-04-14T21:19:03.915Z,47.47
2018-04-14T21:21:31.575Z,47.83
2018-04-14T21:23:59.195Z,49.17
2018-04-14T21:26:26.915Z,48.80
2018-04-14T21:28:56.256Z,47.50
2018-04-14T21:31:23.868Z,48.72
2018-04-14T21:33:52.283Z,50.97
2018-04-14T21:36:19.942Z,46.60
2018-04-14T21:38:47.731Z,48.80
2018-04-14T21:41:15.831Z,47.47
2018-04-14T21:43:44.267Z,48.67
2018-04-14T21:46:12.214Z,48.63
2018-04-14T21:48:39.839Z,49.73
2018-04-14T21:51:07.456Z,50.47
2018-04-14T21:53:35.233Z,49.25
2018-04-14T21:56:02.896Z,49.33
2018-04-14T21:58:30.563Z,49.58
2018-04-14T22:00:58.947Z,49.70
2018-04-14T22:03:26.608Z,48.85
2018-04-14T22:05:54.231Z,48.40
2018-04-14T22:08:21.896Z,44.38
2018-04-14T22:10:49.517Z,49.90
2018-04-14T22:13:17.188Z,51.65
2018-04-14T22:15:44.807Z,50.50
2018-04-14T22:18:13.515Z,48.70
2018-04-14T22:20:41.924Z,50.47
2018-04-14T22:23:09.589Z,50.72
2018-04-14T22:25:37.251Z,48.67
2018-04-14T22:28:05.636Z,47.88
2018-04-14T22:30:33.247Z,49.40
2018-04-14T22:33:01.667Z,51.00
2018-04-14T22:35:29.282Z,51.58
2018-04-14T22:37:56.932Z,48.40
2018-04-14T22:40:26.207Z,47.17
2018-04-14T22:42:53.860Z,50.70
2018-04-14T22:45:21.489Z,51.97
2018-04-14T22:47:49.871Z,50.70
2018-04-14T22:50:17.488Z,50.47
2018-04-14T22:52:45.919Z,46.30
2018-04-14T22:55:13.539Z,52.78
2018-04-14T22:57:41.196Z,48.67
2018-04-14T23:00:09.587Z,50.27
2018-04-14T23:02:37.244Z,49.67
2018-04-14T23:05:04.907Z,48.70
2018-04-14T23:07:32.733Z,52.10
2018-04-14T23:10:00.401Z,50.23
2018-04-14T23:12:28.020Z,47.80
2018-04-14T23:14:55.675Z,48.67
2018-04-14T23:17:23.339Z,53.50
2018-04-14T23:19:50.955Z,44.70
2018-04-14T23:22:19.388Z,46.23
2018-04-14T23:24:47.127Z,48.58
2018-04-14T23:27:14.790Z,50.30
2018-04-14T23:29:42.420Z,50.57
2018-04-14T23:32:10.079Z,51.53
2018-04-14T23:34:38.511Z,49.65
2018-04-14T23:37:06.731Z,49.47
2018-04-14T23:39:34.390Z,51.90
2018-04-14T23:42:02.008Z,50.92
2018-04-14T23:44:29.660Z,51.70
2018-04-14T23:46:57.312Z,54.28
2018-04-14T23:49:24.967Z,52.70
2018-04-14T23:51:52.641Z,53.58
2018-04-14T23:54:20.255Z,51.63
2018-04-14T23:56:48.676Z,54.23
2018-04-14T23:59:16.327Z,48.00
